Aeroporto :
LOGIN :

Iscrizione | Disclaimer

   EN    FR    IT 

 










Sommario :    VFR   VFR Marginale   IFR   IFR Intensivo   IFR Molto Intensivo
Visibilità : 
Base nubi : 
>= 8 km
>= 3000ft
5 / 8 km
1000 / 3000 ft
1500m / 5 km
500 / 1000 ft
800 / 1500m
200 / 500 ft
< 800m
< 200 ft
Simboli :   Temporali  Nebbia  Neve Forte  Precipitazioni Forti  Vento > 20 kt
SIGMETs :   Varie  Temporali  Ghiacco  Turbolenza  Onda orograficha  Ceneri Vulcaniche






- Altitudine del aeroporto : 162 ft
- Codice IATA : BOD


LFBD - Bordeaux / Merignac

ULTIMO METAR :
  • 271000Z AUTO 25005KT 210V290 9999 FEW033 SCT046 BKN058 18/11 Q1014 TEMPO 3000 -SHRA SCT030TCU BKN040

METARs OBSOLETI :
  • 270930Z AUTO 28005KT 220V320 CAVOK 17/11 Q1014 TEMPO 3000 -SHRA SCT030TCU BKN040
  • 270900Z AUTO 28004KT 230V310 CAVOK 16/11 Q1014 TEMPO 3000 -SHRA SCT030TCU BKN040
  • 270830Z AUTO 29006KT 9999 FEW042 OVC060 16/11 Q1014 TEMPO 3000 -SHRA SCT030TCU BKN040
  • 270800Z AUTO 27003KT 220V290 9999 FEW042 BKN054 BKN064 15/11 Q1014 TEMPO 3000 -SHRA SCT030TCU BKN040
  • 270730Z AUTO 26005KT 9999 SCT045 BKN056 14/11 Q1014 TEMPO 3000 -SHRA SCT030TCU BKN040

TAF AMD TAF LFBD
Valido dal 27 a 06 ore il 28 a 12 ore UTC


270546Z 2706/2812 VRB03KT 9999 BKN040 TX19/2714Z TN11/2706Z
BECMG 2710/2712 28012KT
PROB30
TEMPO 2706/2716 3000 -SHRA SCT030TCU BKN040
BECMG 2719/2721 5000 -RA OVC020
TEMPO 2721/2803 2000 RA OVC010
BECMG 2805/2807 9999 NSW BKN030
TEMPO 2805/2812 28015G25KT 3000 SHRA BKN015TCU
ATIS : +33 5 57 92 81 04



MetMap, La meteo Aeronautica in un colpo d'occhio ! - Copyright ORBIFLY Dicembre 2007 - Disclaimer

ORBIFLY MET'MAP TEAM :

Programmazione e sviluppo : Alexandra Zaïnal
Concezione : Baudouin d'Aumeries
Supporto tecnico e logistico : Manuel Goepfert
Aiuto : Marc-Olivier Méhu
Aiuto per la traduzione : Arnaldo La Scala




FONTI E CREDITI :

   NOAA